sensor_id;sensor_type;location;lat;lon;timestamp;pressure;altitude;pressure_sealevel;temperature;humidity
62849;BME280;48941;49.516;8.286;2022-07-29T00:00:15;100202.94;;;21.78;43.81
62849;BME280;48941;49.516;8.286;2022-07-29T00:02:43;100199.59;;;21.76;43.55
62849;BME280;48941;49.516;8.286;2022-07-29T00:05:11;100202.09;;;21.77;43.44
62849;BME280;48941;49.516;8.286;2022-07-29T00:07:40;100199.84;;;21.81;43.53
62849;BME280;48941;49.516;8.286;2022-07-29T00:10:08;100193.78;;;21.79;43.63
62849;BME280;48941;49.516;8.286;2022-07-29T00:12:39;100185.63;;;21.79;43.64
62849;BME280;48941;49.516;8.286;2022-07-29T00:15:08;100182.06;;;21.72;43.93
62849;BME280;48941;49.516;8.286;2022-07-29T00:17:36;100187.47;;;21.72;43.83
62849;BME280;48941;49.516;8.286;2022-07-29T00:20:08;100177.47;;;21.72;43.28
62849;BME280;48941;49.516;8.286;2022-07-29T00:22:37;100181.22;;;21.71;43.43
62849;BME280;48941;49.516;8.286;2022-07-29T00:25:05;100165.16;;;21.70;43.12
62849;BME280;48941;49.516;8.286;2022-07-29T00:27:34;100167.66;;;21.71;43.39
62849;BME280;48941;49.516;8.286;2022-07-29T00:30:03;100163.91;;;21.72;43.34
62849;BME280;48941;49.516;8.286;2022-07-29T00:32:32;100164.72;;;21.73;43.11
62849;BME280;48941;49.516;8.286;2022-07-29T00:35:00;100157.47;;;21.73;43.12
62849;BME280;48941;49.516;8.286;2022-07-29T00:37:45;100160.81;;;21.75;43.26
62849;BME280;48941;49.516;8.286;2022-07-29T00:40:13;100162.06;;;21.79;42.98
62849;BME280;48941;49.516;8.286;2022-07-29T00:42:44;100162.72;;;21.81;43.19
62849;BME280;48941;49.516;8.286;2022-07-29T00:45:12;100156.03;;;21.84;42.97
62849;BME280;48941;49.516;8.286;2022-07-29T00:47:42;100156.88;;;21.84;42.73
62849;BME280;48941;49.516;8.286;2022-07-29T00:50:11;100161.25;;;21.85;42.91
62849;BME280;48941;49.516;8.286;2022-07-29T00:52:41;100155.00;;;21.85;43.21
62849;BME280;48941;49.516;8.286;2022-07-29T00:55:11;100144.13;;;21.78;43.27
62849;BME280;48941;49.516;8.286;2022-07-29T00:57:40;100151.63;;;21.76;43.13
62849;BME280;48941;49.516;8.286;2022-07-29T01:00:10;100147.06;;;21.77;43.31
62849;BME280;48941;49.516;8.286;2022-07-29T01:02:38;100141.84;;;21.75;43.44
62849;BME280;48941;49.516;8.286;2022-07-29T01:05:08;100136.81;;;21.72;43.70
62849;BME280;48941;49.516;8.286;2022-07-29T01:07:36;100134.72;;;21.67;43.77
62849;BME280;48941;49.516;8.286;2022-07-29T01:10:06;100138.25;;;21.68;43.98
62849;BME280;48941;49.516;8.286;2022-07-29T01:12:36;100134.28;;;21.64;43.94
62849;BME280;48941;49.516;8.286;2022-07-29T01:15:06;100136.75;;;21.59;43.74
62849;BME280;48941;49.516;8.286;2022-07-29T01:17:41;100141.31;;;21.58;43.92
62849;BME280;48941;49.516;8.286;2022-07-29T01:20:25;100143.81;;;21.53;44.03
62849;BME280;48941;49.516;8.286;2022-07-29T01:23:26;100138.16;;;21.48;44.52
62849;BME280;48941;49.516;8.286;2022-07-29T01:29:11;100131.47;;;21.44;44.51
62849;BME280;48941;49.516;8.286;2022-07-29T01:31:45;100118.44;;;21.33;44.60
62849;BME280;48941;49.516;8.286;2022-07-29T01:34:31;100126.78;;;21.31;44.23
62849;BME280;48941;49.516;8.286;2022-07-29T01:37:08;100123.63;;;21.27;44.33
62849;BME280;48941;49.516;8.286;2022-07-29T01:39:42;100122.81;;;21.27;44.46
62849;BME280;48941;49.516;8.286;2022-07-29T01:42:14;100122.16;;;21.25;44.88
62849;BME280;48941;49.516;8.286;2022-07-29T01:44:50;100123.38;;;21.22;44.67
62849;BME280;48941;49.516;8.286;2022-07-29T01:47:25;100115.47;;;21.21;44.91
62849;BME280;48941;49.516;8.286;2022-07-29T01:49:56;100119.41;;;21.18;44.82
62849;BME280;48941;49.516;8.286;2022-07-29T01:52:29;100117.94;;;21.16;44.99
62849;BME280;48941;49.516;8.286;2022-07-29T01:55:00;100121.25;;;21.11;45.23
62849;BME280;48941;49.516;8.286;2022-07-29T01:57:31;100120.16;;;21.05;45.52
62849;BME280;48941;49.516;8.286;2022-07-29T02:00:04;100123.25;;;21.02;45.65
62849;BME280;48941;49.516;8.286;2022-07-29T02:02:35;100123.47;;;21.01;45.83
62849;BME280;48941;49.516;8.286;2022-07-29T02:05:06;100129.47;;;20.96;46.19
62849;BME280;48941;49.516;8.286;2022-07-29T02:07:37;100127.34;;;20.92;46.16
62849;BME280;48941;49.516;8.286;2022-07-29T02:10:09;100127.31;;;20.85;46.44
62849;BME280;48941;49.516;8.286;2022-07-29T02:12:38;100120.81;;;20.79;46.63
62849;BME280;48941;49.516;8.286;2022-07-29T02:15:16;100123.66;;;20.71;46.55
62849;BME280;48941;49.516;8.286;2022-07-29T02:17:48;100122.38;;;20.67;46.80
62849;BME280;48941;49.516;8.286;2022-07-29T02:20:16;100121.47;;;20.60;46.51
62849;BME280;48941;49.516;8.286;2022-07-29T02:22:45;100117.47;;;20.56;46.73
62849;BME280;48941;49.516;8.286;2022-07-29T02:25:14;100113.28;;;20.53;47.17
62849;BME280;48941;49.516;8.286;2022-07-29T02:27:44;100120.34;;;20.54;47.08
62849;BME280;48941;49.516;8.286;2022-07-29T02:30:14;100116.81;;;20.54;46.80
62849;BME280;48941;49.516;8.286;2022-07-29T02:32:43;100123.78;;;20.41;47.39
62849;BME280;48941;49.516;8.286;2022-07-29T02:35:14;100118.28;;;20.35;47.51
62849;BME280;48941;49.516;8.286;2022-07-29T02:37:43;100125.13;;;20.30;47.49
62849;BME280;48941;49.516;8.286;2022-07-29T02:40:33;100129.53;;;20.32;47.42
62849;BME280;48941;49.516;8.286;2022-07-29T02:43:02;100120.56;;;20.31;47.53
62849;BME280;48941;49.516;8.286;2022-07-29T02:45:33;100128.88;;;20.29;47.67
62849;BME280;48941;49.516;8.286;2022-07-29T02:48:05;100127.78;;;20.24;48.07
62849;BME280;48941;49.516;8.286;2022-07-29T02:50:34;100122.72;;;20.21;47.91
62849;BME280;48941;49.516;8.286;2022-07-29T02:53:07;100123.97;;;20.18;48.17
62849;BME280;48941;49.516;8.286;2022-07-29T02:55:39;100116.25;;;20.15;47.80
62849;BME280;48941;49.516;8.286;2022-07-29T02:58:12;100114.88;;;20.04;48.63
62849;BME280;48941;49.516;8.286;2022-07-29T03:00:42;100117.44;;;19.91;48.79
62849;BME280;48941;49.516;8.286;2022-07-29T03:03:15;100116.34;;;19.85;48.68
62849;BME280;48941;49.516;8.286;2022-07-29T03:05:43;100118.66;;;19.88;48.84
62849;BME280;48941;49.516;8.286;2022-07-29T03:08:11;100123.03;;;19.89;48.67
62849;BME280;48941;49.516;8.286;2022-07-29T03:10:43;100117.44;;;19.91;48.54
62849;BME280;48941;49.516;8.286;2022-07-29T03:13:12;100117.44;;;19.91;48.94
62849;BME280;48941;49.516;8.286;2022-07-29T03:15:43;100119.69;;;19.87;49.35
62849;BME280;48941;49.516;8.286;2022-07-29T03:18:12;100126.94;;;19.87;49.65
62849;BME280;48941;49.516;8.286;2022-07-29T03:20:41;100125.09;;;19.87;49.60
62849;BME280;48941;49.516;8.286;2022-07-29T03:23:09;100125.28;;;19.86;49.35
62849;BME280;48941;49.516;8.286;2022-07-29T03:25:37;100124.81;;;19.82;49.24
62849;BME280;48941;49.516;8.286;2022-07-29T03:28:05;100117.09;;;19.79;49.23
62849;BME280;48941;49.516;8.286;2022-07-29T03:30:32;100122.03;;;19.76;49.39
62849;BME280;48941;49.516;8.286;2022-07-29T03:33:02;100119.03;;;19.70;49.48
62849;BME280;48941;49.516;8.286;2022-07-29T03:35:39;100117.09;;;19.64;49.54
62849;BME280;48941;49.516;8.286;2022-07-29T03:38:06;100119.78;;;19.64;49.30
62849;BME280;48941;49.516;8.286;2022-07-29T03:40:38;100126.34;;;19.55;49.12
62849;BME280;48941;49.516;8.286;2022-07-29T03:43:10;100127.06;;;19.49;49.48
62849;BME280;48941;49.516;8.286;2022-07-29T03:45:41;100129.50;;;19.44;49.63
62849;BME280;48941;49.516;8.286;2022-07-29T03:48:14;100129.22;;;19.39;50.43
62849;BME280;48941;49.516;8.286;2022-07-29T03:50:43;100133.13;;;19.36;50.44
62849;BME280;48941;49.516;8.286;2022-07-29T03:53:12;100127.25;;;19.33;50.56
62849;BME280;48941;49.516;8.286;2022-07-29T03:55:42;100126.53;;;19.24;50.61
62849;BME280;48941;49.516;8.286;2022-07-29T03:58:11;100126.44;;;19.17;50.75
62849;BME280;48941;49.516;8.286;2022-07-29T04:00:41;100131.84;;;19.17;50.54
62849;BME280;48941;49.516;8.286;2022-07-29T04:03:09;100127.81;;;19.13;50.57
62849;BME280;48941;49.516;8.286;2022-07-29T04:05:42;100125.50;;;19.10;50.86
62849;BME280;48941;49.516;8.286;2022-07-29T04:08:10;100129.41;;;19.07;50.46
62849;BME280;48941;49.516;8.286;2022-07-29T04:10:38;100135.63;;;19.08;50.92
62849;BME280;48941;49.516;8.286;2022-07-29T04:13:06;100136.84;;;19.05;51.19
62849;BME280;48941;49.516;8.286;2022-07-29T04:15:34;100129.75;;;19.04;50.71
62849;BME280;48941;49.516;8.286;2022-07-29T04:18:02;100135.56;;;19.01;50.86
62849;BME280;48941;49.516;8.286;2022-07-29T04:20:29;100135.91;;;18.98;50.93
62849;BME280;48941;49.516;8.286;2022-07-29T04:22:58;100135.72;;;19.00;51.32
62849;BME280;48941;49.516;8.286;2022-07-29T04:25:26;100141.13;;;19.00;50.94
62849;BME280;48941;49.516;8.286;2022-07-29T04:27:54;100134.69;;;19.01;51.11
62849;BME280;48941;49.516;8.286;2022-07-29T04:30:28;100143.81;;;19.00;50.84
62849;BME280;48941;49.516;8.286;2022-07-29T04:32:56;100143.66;;;19.01;50.85
62849;BME280;48941;49.516;8.286;2022-07-29T04:35:24;100140.09;;;19.01;51.11
62849;BME280;48941;49.516;8.286;2022-07-29T04:37:52;100144.31;;;19.03;51.17
62849;BME280;48941;49.516;8.286;2022-07-29T04:40:21;100149.50;;;19.05;51.29
62849;BME280;48941;49.516;8.286;2022-07-29T04:42:49;100151.53;;;19.03;51.31
62849;BME280;48941;49.516;8.286;2022-07-29T04:45:16;100149.69;;;19.03;51.35
62849;BME280;48941;49.516;8.286;2022-07-29T04:47:48;100143.25;;;19.04;51.57
62849;BME280;48941;49.516;8.286;2022-07-29T04:50:16;100141.88;;;19.08;51.01
62849;BME280;48941;49.516;8.286;2022-07-29T04:52:43;100141.69;;;19.10;51.18
62849;BME280;48941;49.516;8.286;2022-07-29T04:55:11;100140.28;;;19.14;51.14
62849;BME280;48941;49.516;8.286;2022-07-29T04:57:40;100145.34;;;19.17;51.18
62849;BME280;48941;49.516;8.286;2022-07-29T05:00:09;100143.09;;;19.21;51.37
62849;BME280;48941;49.516;8.286;2022-07-29T05:02:37;100146.44;;;19.23;51.35
62849;BME280;48941;49.516;8.286;2022-07-29T05:05:06;100144.22;;;19.26;51.06
62849;BME280;48941;49.516;8.286;2022-07-29T05:07:34;100144.69;;;19.30;51.41
62849;BME280;48941;49.516;8.286;2022-07-29T05:10:02;100152.03;;;19.36;51.67
62849;BME280;48941;49.516;8.286;2022-07-29T05:12:29;100147.94;;;19.40;51.96
62849;BME280;48941;49.516;8.286;2022-07-29T05:14:59;100153.63;;;19.45;51.82
62849;BME280;48941;49.516;8.286;2022-07-29T05:17:27;100157.47;;;19.51;51.30
62849;BME280;48941;49.516;8.286;2022-07-29T05:19:54;100162.28;;;19.56;50.39
62849;BME280;48941;49.516;8.286;2022-07-29T05:22:22;100153.91;;;19.65;50.71
62849;BME280;48941;49.516;8.286;2022-07-29T05:24:50;100159.22;;;19.74;50.05
62849;BME280;48941;49.516;8.286;2022-07-29T05:27:18;100163.88;;;19.80;49.75
62849;BME280;48941;49.516;8.286;2022-07-29T05:29:46;100159.19;;;19.88;49.42
62849;BME280;48941;49.516;8.286;2022-07-29T05:32:15;100156.59;;;19.95;49.38
62849;BME280;48941;49.516;8.286;2022-07-29T05:34:43;100159.16;;;20.03;48.69
62849;BME280;48941;49.516;8.286;2022-07-29T05:37:17;100158.66;;;20.15;48.64
62849;BME280;48941;49.516;8.286;2022-07-29T05:39:45;100166.66;;;20.23;48.11
62849;BME280;48941;49.516;8.286;2022-07-29T05:42:23;100163.63;;;20.33;48.01
62849;BME280;48941;49.516;8.286;2022-07-29T05:44:51;100166.84;;;20.43;47.67
62849;BME280;48941;49.516;8.286;2022-07-29T05:47:20;100175.50;;;20.53;47.62
62849;BME280;48941;49.516;8.286;2022-07-29T05:49:48;100174.56;;;20.61;47.16
62849;BME280;48941;49.516;8.286;2022-07-29T05:52:17;100167.16;;;20.69;46.87
62849;BME280;48941;49.516;8.286;2022-07-29T05:54:44;100161.59;;;20.78;46.34
62849;BME280;48941;49.516;8.286;2022-07-29T05:57:15;100167.50;;;20.88;46.20
62849;BME280;48941;49.516;8.286;2022-07-29T05:59:43;100170.06;;;20.96;46.03
62849;BME280;48941;49.516;8.286;2022-07-29T06:02:11;100168.25;;;21.03;45.98
62849;BME280;48941;49.516;8.286;2022-07-29T06:04:40;100171.28;;;21.15;45.50
62849;BME280;48941;49.516;8.286;2022-07-29T06:07:08;100171.75;;;21.25;45.43
62849;BME280;48941;49.516;8.286;2022-07-29T06:09:37;100169.53;;;21.36;45.62
62849;BME280;48941;49.516;8.286;2022-07-29T06:12:05;100172.47;;;21.41;45.03
62849;BME280;48941;49.516;8.286;2022-07-29T06:14:33;100174.44;;;21.47;45.11
62849;BME280;48941;49.516;8.286;2022-07-29T06:17:01;100176.56;;;21.58;44.80
62849;BME280;48941;49.516;8.286;2022-07-29T06:19:29;100182.44;;;21.68;44.65
62849;BME280;48941;49.516;8.286;2022-07-29T06:21:58;100180.00;;;21.80;44.20
62849;BME280;48941;49.516;8.286;2022-07-29T06:24:26;100185.03;;;21.90;44.15
62849;BME280;48941;49.516;8.286;2022-07-29T06:26:54;100185.72;;;21.99;43.93
62849;BME280;48941;49.516;8.286;2022-07-29T06:29:22;100179.06;;;22.08;43.74
62849;BME280;48941;49.516;8.286;2022-07-29T06:31:50;100187.63;;;22.12;43.85
62849;BME280;48941;49.516;8.286;2022-07-29T06:34:18;100184.94;;;22.18;43.92
62849;BME280;48941;49.516;8.286;2022-07-29T06:36:46;100181.25;;;22.26;43.74
62849;BME280;48941;49.516;8.286;2022-07-29T06:39:17;100184.63;;;22.35;43.87
62849;BME280;48941;49.516;8.286;2022-07-29T06:41:46;100186.06;;;22.44;43.64
62849;BME280;48941;49.516;8.286;2022-07-29T06:44:14;100181.09;;;22.47;43.70
62849;BME280;48941;49.516;8.286;2022-07-29T06:46:43;100182.78;;;22.55;43.78
62849;BME280;48941;49.516;8.286;2022-07-29T06:49:11;100183.19;;;22.65;43.19
62849;BME280;48941;49.516;8.286;2022-07-29T06:51:40;100190.50;;;22.72;43.24
62849;BME280;48941;49.516;8.286;2022-07-29T06:54:08;100196.56;;;22.74;43.31
62849;BME280;48941;49.516;8.286;2022-07-29T06:56:37;100206.38;;;22.81;43.09
62849;BME280;48941;49.516;8.286;2022-07-29T06:59:09;100200.53;;;22.84;43.11
62849;BME280;48941;49.516;8.286;2022-07-29T07:01:38;100207.25;;;22.89;43.12
62849;BME280;48941;49.516;8.286;2022-07-29T07:04:07;100209.13;;;22.95;43.09
62849;BME280;48941;49.516;8.286;2022-07-29T07:06:36;100207.66;;;22.99;43.24
62849;BME280;48941;49.516;8.286;2022-07-29T07:09:04;100212.69;;;23.02;43.47
62849;BME280;48941;49.516;8.286;2022-07-29T07:11:32;100212.91;;;23.07;43.79
62849;BME280;48941;49.516;8.286;2022-07-29T07:14:02;100214.78;;;23.13;43.91
62849;BME280;48941;49.516;8.286;2022-07-29T07:16:31;100213.53;;;23.16;43.89
62849;BME280;48941;49.516;8.286;2022-07-29T07:18:59;100216.47;;;23.21;44.05
62849;BME280;48941;49.516;8.286;2022-07-29T07:21:28;100217.69;;;23.32;43.74
62849;BME280;48941;49.516;8.286;2022-07-29T07:23:57;100216.00;;;23.44;44.82
62849;BME280;48941;49.516;8.286;2022-07-29T07:26:25;100214.94;;;23.52;44.47
62849;BME280;48941;49.516;8.286;2022-07-29T07:28:53;100219.09;;;23.54;48.47
62849;BME280;48941;49.516;8.286;2022-07-29T07:31:22;100223.06;;;23.58;48.74
62849;BME280;48941;49.516;8.286;2022-07-29T07:33:50;100213.88;;;23.59;48.97
62849;BME280;48941;49.516;8.286;2022-07-29T07:36:20;100215.53;;;23.60;49.36
62849;BME280;48941;49.516;8.286;2022-07-29T07:38:47;100219.09;;;23.67;49.04
62849;BME280;48941;49.516;8.286;2022-07-29T07:41:15;100219.91;;;23.75;49.25
62849;BME280;48941;49.516;8.286;2022-07-29T07:43:43;100216.56;;;23.79;48.70
62849;BME280;48941;49.516;8.286;2022-07-29T07:46:11;100215.09;;;23.77;49.01
62849;BME280;48941;49.516;8.286;2022-07-29T07:48:40;100209.03;;;23.75;49.04
62849;BME280;48941;49.516;8.286;2022-07-29T07:51:08;100209.44;;;23.85;49.28
62849;BME280;48941;49.516;8.286;2022-07-29T07:53:36;100211.97;;;23.87;49.41
62849;BME280;48941;49.516;8.286;2022-07-29T07:56:05;100211.72;;;23.88;49.45
62849;BME280;48941;49.516;8.286;2022-07-29T07:58:38;100210.47;;;23.91;49.65
62849;BME280;48941;49.516;8.286;2022-07-29T08:01:06;100215.28;;;23.95;49.38
62849;BME280;48941;49.516;8.286;2022-07-29T08:03:34;100213.59;;;23.94;50.18
62849;BME280;48941;49.516;8.286;2022-07-29T08:06:04;100212.75;;;23.94;50.45
62849;BME280;48941;49.516;8.286;2022-07-29T08:08:32;100219.88;;;23.95;50.97
62849;BME280;48941;49.516;8.286;2022-07-29T08:11:00;100218.81;;;24.02;50.24
62849;BME280;48941;49.516;8.286;2022-07-29T08:13:35;100212.25;;;24.10;49.75
62849;BME280;48941;49.516;8.286;2022-07-29T08:16:03;100216.16;;;24.28;49.29
62849;BME280;48941;49.516;8.286;2022-07-29T08:18:39;100217.13;;;24.40;48.39
62849;BME280;48941;49.516;8.286;2022-07-29T08:21:08;100209.97;;;24.52;48.08
62849;BME280;48941;49.516;8.286;2022-07-29T08:23:41;100216.97;;;24.73;47.64
62849;BME280;48941;49.516;8.286;2022-07-29T08:26:23;100215.13;;;24.92;47.23
62849;BME280;48941;49.516;8.286;2022-07-29T08:28:51;100212.91;;;25.08;47.03
62849;BME280;48941;49.516;8.286;2022-07-29T08:31:18;100204.38;;;25.29;46.27
62849;BME280;48941;49.516;8.286;2022-07-29T08:33:46;100206.22;;;25.35;46.00
62849;BME280;48941;49.516;8.286;2022-07-29T08:36:15;100220.22;;;25.39;46.01
62849;BME280;48941;49.516;8.286;2022-07-29T08:38:44;100220.50;;;25.31;46.24
62849;BME280;48941;49.516;8.286;2022-07-29T08:41:12;100215.22;;;25.36;46.19
62849;BME280;48941;49.516;8.286;2022-07-29T08:43:40;100213.94;;;25.38;46.07
62849;BME280;48941;49.516;8.286;2022-07-29T08:46:08;100218.25;;;25.46;46.06
62849;BME280;48941;49.516;8.286;2022-07-29T08:48:36;100214.91;;;25.44;46.05
62849;BME280;48941;49.516;8.286;2022-07-29T08:51:07;100225.81;;;25.44;46.18
62849;BME280;48941;49.516;8.286;2022-07-29T08:53:37;100220.38;;;25.44;46.02
62849;BME280;48941;49.516;8.286;2022-07-29T08:56:05;100226.44;;;25.46;46.28
62849;BME280;48941;49.516;8.286;2022-07-29T08:58:34;100221.59;;;25.48;46.90
62849;BME280;48941;49.516;8.286;2022-07-29T09:01:04;100228.41;;;25.39;47.59
62849;BME280;48941;49.516;8.286;2022-07-29T09:03:36;100222.59;;;25.54;47.23
62849;BME280;48941;49.516;8.286;2022-07-29T09:06:05;100219.09;;;25.83;46.67
62849;BME280;48941;49.516;8.286;2022-07-29T09:08:34;100218.22;;;26.08;45.82
62849;BME280;48941;49.516;8.286;2022-07-29T09:11:03;100224.97;;;26.36;45.52
62849;BME280;48941;49.516;8.286;2022-07-29T09:13:31;100220.00;;;26.63;44.82
62849;BME280;48941;49.516;8.286;2022-07-29T09:15:59;100224.00;;;26.91;43.82
62849;BME280;48941;49.516;8.286;2022-07-29T09:18:35;100229.59;;;26.96;43.77
62849;BME280;48941;49.516;8.286;2022-07-29T09:21:04;100227.84;;;27.13;43.42
62849;BME280;48941;49.516;8.286;2022-07-29T09:24:04;100223.53;;;27.06;43.48
62849;BME280;48941;49.516;8.286;2022-07-29T09:26:36;100222.59;;;26.88;44.21
62849;BME280;48941;49.516;8.286;2022-07-29T09:29:09;100224.59;;;26.93;43.79
62849;BME280;48941;49.516;8.286;2022-07-29T09:31:39;100215.22;;;27.00;43.50
62849;BME280;48941;49.516;8.286;2022-07-29T09:34:09;100220.22;;;27.03;43.69
62849;BME280;48941;49.516;8.286;2022-07-29T09:36:39;100225.81;;;27.09;42.99
62849;BME280;48941;49.516;8.286;2022-07-29T09:39:07;100220.22;;;27.03;43.34
62849;BME280;48941;49.516;8.286;2022-07-29T09:41:49;100224.25;;;27.01;43.17
62849;BME280;48941;49.516;8.286;2022-07-29T09:44:20;100225.69;;;27.03;42.91
62849;BME280;48941;49.516;8.286;2022-07-29T09:46:56;100225.22;;;27.18;42.92
62849;BME280;48941;49.516;8.286;2022-07-29T09:49:25;100224.19;;;27.31;41.80
62849;BME280;48941;49.516;8.286;2022-07-29T09:52:00;100224.31;;;27.48;41.14
62849;BME280;48941;49.516;8.286;2022-07-29T09:54:31;100220.72;;;27.71;40.48
62849;BME280;48941;49.516;8.286;2022-07-29T09:57:06;100222.59;;;27.83;38.78
62849;BME280;48941;49.516;8.286;2022-07-29T09:59:36;100215.28;;;28.12;38.20
62849;BME280;48941;49.516;8.286;2022-07-29T10:02:16;100221.72;;;28.46;37.07
62849;BME280;48941;49.516;8.286;2022-07-29T10:04:49;100219.59;;;28.65;36.62
62849;BME280;48941;49.516;8.286;2022-07-29T10:07:17;100221.22;;;28.78;36.37
62849;BME280;48941;49.516;8.286;2022-07-29T10:09:52;100218.78;;;28.82;36.27
62849;BME280;48941;49.516;8.286;2022-07-29T10:12:23;100217.47;;;28.84;36.30
62849;BME280;48941;49.516;8.286;2022-07-29T10:14:51;100219.63;;;28.82;36.55
62849;BME280;48941;49.516;8.286;2022-07-29T10:17:19;100210.56;;;28.82;36.08
62849;BME280;48941;49.516;8.286;2022-07-29T10:19:47;100207.75;;;28.76;36.57
62849;BME280;48941;49.516;8.286;2022-07-29T10:22:16;100205.94;;;28.82;36.30
62849;BME280;48941;49.516;8.286;2022-07-29T10:25:04;100199.47;;;28.88;36.36
62849;BME280;48941;49.516;8.286;2022-07-29T10:27:34;100202.03;;;28.95;36.17
62849;BME280;48941;49.516;8.286;2022-07-29T10:30:03;100202.75;;;29.07;36.09
62849;BME280;48941;49.516;8.286;2022-07-29T10:32:40;100203.25;;;28.87;36.25
62849;BME280;48941;49.516;8.286;2022-07-29T10:35:27;100202.53;;;28.92;36.01
62849;BME280;48941;49.516;8.286;2022-07-29T10:38:15;100205.44;;;29.02;35.73
62849;BME280;48941;49.516;8.286;2022-07-29T10:40:55;100194.97;;;28.99;35.85
62849;BME280;48941;49.516;8.286;2022-07-29T10:43:47;100196.59;;;29.12;36.10
62849;BME280;48941;49.516;8.286;2022-07-29T10:46:17;100194.25;;;29.21;35.45
62849;BME280;48941;49.516;8.286;2022-07-29T10:49:05;100199.53;;;29.27;35.35
62849;BME280;48941;49.516;8.286;2022-07-29T10:51:55;100200.78;;;29.19;35.42
62849;BME280;48941;49.516;8.286;2022-07-29T10:54:45;100196.94;;;29.04;36.24
62849;BME280;48941;49.516;8.286;2022-07-29T10:57:16;100196.94;;;29.04;36.17
62849;BME280;48941;49.516;8.286;2022-07-29T10:59:48;100187.25;;;28.96;36.13
62849;BME280;48941;49.516;8.286;2022-07-29T11:02:41;100185.50;;;28.90;36.19
62849;BME280;48941;49.516;8.286;2022-07-29T11:05:11;100182.78;;;28.90;36.27
62849;BME280;48941;49.516;8.286;2022-07-29T11:08:20;100181.78;;;28.96;36.21
62849;BME280;48941;49.516;8.286;2022-07-29T11:11:28;100174.78;;;29.05;36.03
62849;BME280;48941;49.516;8.286;2022-07-29T11:13:49;100173.31;;;29.14;36.02
62849;BME280;48941;49.516;8.286;2022-07-29T11:16:21;100178.03;;;29.19;36.01
62849;BME280;48941;49.516;8.286;2022-07-29T11:19:19;100176.78;;;29.27;35.86
62849;BME280;48941;49.516;8.286;2022-07-29T11:21:55;100186.25;;;29.36;35.53
62849;BME280;48941;49.516;8.286;2022-07-29T11:24:25;100181.06;;;29.39;35.29
62849;BME280;48941;49.516;8.286;2022-07-29T11:27:13;100178.97;;;29.47;36.03
62849;BME280;48941;49.516;8.286;2022-07-29T11:29:50;100183.69;;;29.51;35.75
62849;BME280;48941;49.516;8.286;2022-07-29T11:32:21;100177.72;;;29.54;34.80
62849;BME280;48941;49.516;8.286;2022-07-29T11:35:16;100179.56;;;29.49;34.64
62849;BME280;48941;49.516;8.286;2022-07-29T11:38:23;100175.00;;;29.37;34.67
62849;BME280;48941;49.516;8.286;2022-07-29T11:41:23;100176.91;;;29.37;34.38
62849;BME280;48941;49.516;8.286;2022-07-29T11:43:55;100173.00;;;29.50;34.73
62849;BME280;48941;49.516;8.286;2022-07-29T11:46:44;100168.38;;;29.55;34.95
62849;BME280;48941;49.516;8.286;2022-07-29T11:49:18;100164.81;;;29.72;34.82
62849;BME280;48941;49.516;8.286;2022-07-29T11:52:06;100162.41;;;30.03;33.78
62849;BME280;48941;49.516;8.286;2022-07-29T11:54:41;100157.75;;;30.03;33.72
62849;BME280;48941;49.516;8.286;2022-07-29T11:57:24;100151.09;;;29.99;33.64
62849;BME280;48941;49.516;8.286;2022-07-29T12:00:05;100149.81;;;30.07;33.84
62849;BME280;48941;49.516;8.286;2022-07-29T12:02:38;100149.56;;;30.08;33.26
62849;BME280;48941;49.516;8.286;2022-07-29T12:05:10;100159.78;;;30.13;33.39
62849;BME280;48941;49.516;8.286;2022-07-29T12:07:40;100153.00;;;30.21;33.22
62849;BME280;48941;49.516;8.286;2022-07-29T12:10:13;100147.63;;;30.31;32.33
62849;BME280;48941;49.516;8.286;2022-07-29T12:12:55;100149.16;;;30.44;33.17
62849;BME280;48941;49.516;8.286;2022-07-29T12:15:23;100143.50;;;30.61;32.23
62849;BME280;48941;49.516;8.286;2022-07-29T12:18:17;100148.28;;;30.75;31.85
62849;BME280;48941;49.516;8.286;2022-07-29T12:20:58;100149.44;;;30.80;31.32
62849;BME280;48941;49.516;8.286;2022-07-29T12:23:29;100152.75;;;30.82;31.11
62849;BME280;48941;49.516;8.286;2022-07-29T12:26:03;100148.09;;;30.82;31.09
62849;BME280;48941;49.516;8.286;2022-07-29T12:28:36;100148.88;;;30.77;31.12
62849;BME280;48941;49.516;8.286;2022-07-29T12:31:05;100153.00;;;30.80;31.41
62849;BME280;48941;49.516;8.286;2022-07-29T12:33:33;100147.81;;;30.84;31.77
62849;BME280;48941;49.516;8.286;2022-07-29T12:36:03;100140.66;;;30.83;31.51
62849;BME280;48941;49.516;8.286;2022-07-29T12:38:36;100142.53;;;30.77;31.54
62849;BME280;48941;49.516;8.286;2022-07-29T12:41:07;100142.22;;;30.73;31.19
62849;BME280;48941;49.516;8.286;2022-07-29T12:43:35;100139.47;;;30.73;31.68
62849;BME280;48941;49.516;8.286;2022-07-29T12:46:12;100134.84;;;30.79;31.70
62849;BME280;48941;49.516;8.286;2022-07-29T12:48:41;100136.78;;;30.78;31.71
62849;BME280;48941;49.516;8.286;2022-07-29T12:51:11;100132.59;;;30.71;31.21
62849;BME280;48941;49.516;8.286;2022-07-29T12:53:41;100126.44;;;30.58;31.69
62849;BME280;48941;49.516;8.286;2022-07-29T12:56:15;100123.19;;;30.62;31.84
62849;BME280;48941;49.516;8.286;2022-07-29T12:59:11;100124.91;;;30.73;31.53
62849;BME280;48941;49.516;8.286;2022-07-29T13:01:40;100130.16;;;30.74;31.73
62849;BME280;48941;49.516;8.286;2022-07-29T13:04:07;100130.94;;;30.70;32.02
62849;BME280;48941;49.516;8.286;2022-07-29T13:06:39;100130.09;;;30.69;31.95
62849;BME280;48941;49.516;8.286;2022-07-29T13:09:13;100131.22;;;30.68;32.01
62849;BME280;48941;49.516;8.286;2022-07-29T13:11:43;100124.34;;;30.71;32.04
62849;BME280;48941;49.516;8.286;2022-07-29T13:14:29;100121.66;;;30.81;32.02
62849;BME280;48941;49.516;8.286;2022-07-29T13:17:04;100117.03;;;30.87;31.79